Pride Of Canterbury — MPQZ6 — position and weather

sailwx.info

Track history (hours):
 
Tides and Currents Weather Stations Pressure Air Temp Water Temp Dewpoint Dewpoint Depression Visibility Wind Speed Wind Dir Waves Ship Positions

Pride Of Canterbury

Operator: P & O Ferries

Last reported at 2017-Apr-30 14:29 UTC. Time now 2017-Apr-30 14:53 UTC.
Position N 51°07' E 001°20'.

Length 180 m; draft 5.7 m.

Type: Passenger vessel. MMSI: 232001060.

Date/timePositionNaut miles runAvg speedWind from/ knotsBaromVisibWave heightAir tempDewpointWater temp
2017-Apr-30 14:29N 51°07' E 001°20'3 2.7
2017-Apr-30 13:31N 51°07' E 001°24'918.8
2017-Apr-30 13:01N 51°02' E 001°37'816.7
2017-Apr-30 12:31N 50°58' E 001°49'1 2.7
2017-Apr-30 12:00N 50°58' E 001°51'0 0.0
2017-Apr-30 11:30N 50°58' E 001°51'713.3
2017-Apr-30 11:00N 50°58' E 001°40'917.6
2017-Apr-30 10:30N 51°03' E 001°29'7 6.4
2017-Apr-30 09:25N 51°07' E 001°20'1 2.1
2017-Apr-30 09:00N 51°07' E 001°21'1019.5
2017-Apr-30 08:31N 51°03' E 001°35'1019.1
2017-Apr-30 08:01N 50°58' E 001°48'2 3.2
2017-Apr-30 07:29N 50°58' E 001°51'0 0.0
2017-Apr-30 07:00N 50°58' E 001°51'611.1
2017-Apr-30 06:30N 50°58' E 001°42'917.9
2017-Apr-30 06:00N 51°03' E 001°30'815.1
2017-Apr-30 05:30N 51°07' E 001°20'0 0.0
2017-Apr-30 05:00N 51°07' E 001°20'0 0.0
2017-Apr-30 04:27N 51°07' E 001°20'0 0.3
2017-Apr-30 04:00N 51°07' E 001°20'815.8
2017-Apr-30 03:30N 51°05' E 001°32'918.3
2017-Apr-30 03:00N 50°59' E 001°44'5 9.3
2017-Apr-30 02:30N 50°58' E 001°51'0 0.0
2017-Apr-30 02:00N 50°58' E 001°51'0 0.0
2017-Apr-30 01:29N 50°58' E 001°51'5 9.9
2017-Apr-30 01:01N 50°58' E 001°44'916.5
2017-Apr-30 00:29N 51°01' E 001°31'815.7
2017-Apr-30 00:00N 51°06' E 001°22'2 3.1
2017-Apr-29 23:29N 51°07' E 001°20'0 0.2
2017-Apr-29 23:00N 51°07' E 001°20'816.0
2017-Apr-29 22:31N 51°04' E 001°31'917.6
2017-Apr-29 22:00N 50°59' E 001°43'510.3
2017-Apr-29 21:30N 50°58' E 001°51'0 0.0
2017-Apr-29 21:00N 50°58' E 001°51'0 0.8
2017-Apr-29 20:31N 50°58' E 001°51'815.7
2017-Apr-29 20:01N 50°59' E 001°38'816.5
2017-Apr-29 19:30N 51°04' E 001°28'610.5
2017-Apr-29 18:58N 51°07' E 001°20'0 0.0
2017-Apr-29 18:28N 51°07' E 001°20'4 7.9
2017-Apr-29 18:00N 51°06' E 001°26'917.3
2017-Apr-29 17:31N 51°02' E 001°37'816.3
2017-Apr-29 17:01N 50°58' E 001°49'1 2.4
2017-Apr-29 16:29N 50°58' E 001°51'0 0.5
2017-Apr-29 16:01N 50°58' E 001°51'917.7
2017-Apr-29 15:31N 50°60' E 001°37'1019.1
2017-Apr-29 15:00N 51°06' E 001°25'4 3.5
2017-Apr-29 14:00N 51°07' E 001°20'611.3
2017-Apr-29 13:31N 51°05' E 001°28'918.1
2017-Apr-29 13:00N 51°00' E 001°40'714.0
2017-Apr-29 12:30N 50°58' E 001°51'0 0.2
2017-Apr-29 11:59N 50°58' E 001°51'0 0.3
2017-Apr-29 11:30N 50°58' E 001°51'917.7
2017-Apr-29 11:01N 50°60' E 001°37'918.6
2017-Apr-29 10:31N 51°05' E 001°25'4 3.3
2017-Apr-29 09:23N 51°07' E 001°20'512.7
2017-Apr-29 09:00N 51°06' E 001°27'1019.3
2017-Apr-29 08:31N 51°00' E 001°40'815.2
2017-Apr-29 08:01N 50°58' E 001°52'0 0.1
2017-Apr-29 07:30N 50°58' E 001°52'0 0.8
2017-Apr-29 07:00N 50°58' E 001°51'714.9
2017-Apr-29 06:30N 50°59' E 001°39'918.7
2017-Apr-29 06:00N 51°04' E 001°27'6 3.8
2017-Apr-29 04:31N 51°07' E 001°20'0 0.0
2017-Apr-29 04:22N 51°07' E 001°20'2 6.9
2017-Apr-29 04:00N 51°07' E 001°24'918.4
2017-Apr-29 03:30N 51°02' E 001°36'917.1
2017-Apr-29 03:00N 50°58' E 001°49'2 3.7
2017-Apr-29 02:30N 50°58' E 001°52'0 0.0
2017-Apr-29 02:00N 50°58' E 001°52'0 0.0
2017-Apr-29 01:30N 50°58' E 001°52'815.3
2017-Apr-29 01:00N 50°58' E 001°40'918.9
2017-Apr-29 00:30N 51°04' E 001°27'611.1
2017-Apr-28 23:59N 51°07' E 001°20'0 0.0
2017-Apr-28 23:30N 51°07' E 001°20'2 3.5
2017-Apr-28 23:00N 51°07' E 001°23'1019.0
2017-Apr-28 22:30N 51°02' E 001°36'918.4
2017-Apr-28 22:00N 50°58' E 001°49'2 3.4
2017-Apr-28 21:30N 50°58' E 001°52'0 0.0
2017-Apr-28 21:00N 50°58' E 001°52'1 3.0
2017-Apr-28 20:30N 50°58' E 001°49'816.1
2017-Apr-28 20:00N 51°00' E 001°37'918.4
2017-Apr-28 19:30N 51°05' E 001°25'4 3.1
2017-Apr-28 18:21N 51°07' E 001°20'3 9.2
2017-Apr-28 18:00N 51°06' E 001°25'917.3
2017-Apr-28 17:30N 51°02' E 001°37'816.2
2017-Apr-28 17:00N 50°58' E 001°48'2 3.5
2017-Apr-28 16:28N 50°58' E 001°51'1 2.8
2017-Apr-28 16:00N 50°58' E 001°49'917.8
2017-Apr-28 15:29N 51°01' E 001°35'919.2
2017-Apr-28 15:00N 51°06' E 001°23'2 2.0
2017-Apr-28 13:56N 51°07' E 001°20'512.1
2017-Apr-28 13:30N 51°07' E 001°28'917.4
2017-Apr-28 13:00N 51°02' E 001°40'714.9
2017-Apr-28 12:30N 50°58' E 001°50'1 1.1
2017-Apr-28 11:59N 50°58' E 001°51'0 0.0
2017-Apr-28 11:30N 50°58' E 001°51'714.7
2017-Apr-28 11:00N 50°59' E 001°40'1019.1
2017-Apr-28 10:30N 51°05' E 001°27'5 4.4
2017-Apr-28 09:20N 51°07' E 001°20'2 5.7
2017-Apr-28 09:00N 51°07' E 001°23'919.0
2017-Apr-28 08:30N 51°02' E 001°36'918.3
2017-Apr-28 08:00N 50°58' E 001°49'1 2.5
2017-Apr-28 07:30N 50°58' E 001°51'0 0.0
2017-Apr-28 07:00N 50°58' E 001°51'510.8
2017-Apr-28 06:30N 50°58' E 001°43'917.3
2017-Apr-28 06:00N 51°02' E 001°31'815.8
2017-Apr-28 05:28N 51°07' E 001°20'0 0.0
2017-Apr-28 04:57N 51°07' E 001°20'0 0.0
2017-Apr-28 04:18N 51°07' E 001°20'1 3.8
2017-Apr-28 04:00N 51°07' E 001°22'815.4
2017-Apr-28 03:30N 51°04' E 001°33'816.1
2017-Apr-28 03:00N 50°59' E 001°43'510.9
2017-Apr-28 02:30N 50°58' E 001°52'0 0.0
2017-Apr-28 01:59N 50°58' E 001°52'0 0.0
2017-Apr-28 01:30N 50°58' E 001°52'613.1
2017-Apr-28 01:00N 50°58' E 001°42'1219.1
2017-Apr-28 00:24N 51°04' E 001°26'5 9.3
2017-Apr-27 23:52N 51°07' E 001°20'0 0.0
2017-Apr-27 23:29N 51°07' E 001°20'0 0.4
2017-Apr-27 23:00N 51°07' E 001°20'816.6
2017-Apr-27 22:30N 51°04' E 001°32'918.7
2017-Apr-27 22:01N 50°59' E 001°44'5 9.4
2017-Apr-27 21:30N 50°58' E 001°52'0 0.0
2017-Apr-27 21:00N 50°58' E 001°52'5 9.1
2017-Apr-27 20:30N 50°58' E 001°44'917.4
2017-Apr-27 20:00N 51°02' E 001°32'917.6
2017-Apr-27 19:29N 51°07' E 001°20'0 0.2
2017-Apr-27 18:54N 51°07' E 001°20'0 0.6
2017-Apr-27 18:30N 51°07' E 001°20'917.7
2017-Apr-27 18:00N 51°04' E 001°33'918.6
2017-Apr-27 17:30N 50°58' E 001°45'4 7.3
2017-Apr-27 16:58N 50°58' E 001°51'0 0.0
2017-Apr-27 16:28N 50°58' E 001°51'3 6.8
2017-Apr-27 16:00N 50°58' E 001°46'918.2
2017-Apr-27 15:30N 51°02' E 001°33'1018.5
2017-Apr-27 14:59N 51°07' E 001°20'0 0.1
2017-Apr-27 13:59N 51°07' E 001°20'714.7
2017-Apr-27 13:30N 51°07' E 001°32'917.3
2017-Apr-27 13:01N 51°01' E 001°41'713.8
2017-Apr-27 12:31N 50°58' E 001°51'0 0.3
2017-Apr-27 11:57N 50°58' E 001°51'0 0.2
2017-Apr-27 11:30N 50°58' E 001°51'916.9
2017-Apr-27 10:59N 50°60' E 001°38'919.0
2017-Apr-27 10:31N 51°04' E 001°25'4 3.3
2017-Apr-27 09:14N 51°07' E 001°20'2 9.5
2017-Apr-27 09:01N 51°07' E 001°24'918.4
2017-Apr-27 08:31N 51°02' E 001°36'918.1
2017-Apr-27 08:01N 50°58' E 001°49'1 2.5
2017-Apr-27 07:30N 50°58' E 001°51'0 0.0
2017-Apr-27 07:00N 50°58' E 001°51'4 8.8
2017-Apr-27 06:30N 50°58' E 001°44'917.4
2017-Apr-27 06:01N 51°03' E 001°32'914.5
2017-Apr-27 05:23N 51°07' E 001°20'0 0.0
2017-Apr-27 04:49N 51°07' E 001°20'0 0.0
2017-Apr-27 04:30N 51°07' E 001°20'3 6.6
2017-Apr-27 04:00N 51°06' E 001°25'816.0
2017-Apr-27 03:30N 51°03' E 001°36'815.4
2017-Apr-27 03:00N 50°58' E 001°46'4 7.2
2017-Apr-27 02:31N 50°58' E 001°52'0 0.0
2017-Apr-27 02:00N 50°58' E 001°52'1 2.4
2017-Apr-27 01:30N 50°58' E 001°50'918.9
2017-Apr-27 01:00N 51°01' E 001°35'918.8
2017-Apr-27 00:30N 51°06' E 001°23'2 4.4
2017-Apr-26 23:59N 51°07' E 001°20'0 0.3
2017-Apr-26 23:30N 51°07' E 001°20'715.0
2017-Apr-26 23:01N 51°04' E 001°31'917.7
2017-Apr-26 22:31N 50°59' E 001°43'611.4
2017-Apr-26 21:59N 50°58' E 001°52'0 0.0
2017-Apr-26 21:30N 50°58' E 001°52'0 0.5
2017-Apr-26 21:00N 50°58' E 001°51'714.5
2017-Apr-26 20:30N 50°59' E 001°40'918.0
2017-Apr-26 20:01N 51°03' E 001°27'611.7
2017-Apr-26 19:29N 51°07' E 001°20'0 0.3
2017-Apr-26 18:58N 51°07' E 001°20'1 2.8
2017-Apr-26 18:30N 51°07' E 001°22'918.5
2017-Apr-26 18:00N 51°03' E 001°35'918.0
2017-Apr-26 17:30N 50°58' E 001°47'2 4.5
2017-Apr-26 17:00N 50°58' E 001°51'0 0.0
2017-Apr-26 16:30N 50°58' E 001°51'5 9.9
2017-Apr-26 16:00N 50°58' E 001°43'917.5
2017-Apr-26 15:30N 51°02' E 001°31'916.3
2017-Apr-26 14:58N 51°07' E 001°20'0 0.0
2017-Apr-26 14:08N 51°07' E 001°20'913.8
2017-Apr-26 13:31N 51°04' E 001°32'917.5
2017-Apr-26 13:01N 50°59' E 001°44'5 9.4
2017-Apr-26 12:29N 50°58' E 001°52'0 0.0
2017-Apr-26 12:00N 50°58' E 001°52'1 1.9
2017-Apr-26 11:31N 50°58' E 001°50'1019.8
2017-Apr-26 11:00N 50°60' E 001°35'1019.2
2017-Apr-26 10:31N 51°06' E 001°24'2 1.9
2017-Apr-26 09:15N 51°07' E 001°20'311.1
2017-Apr-26 09:00N 51°07' E 001°24'918.6
2017-Apr-26 08:30N 51°02' E 001°37'917.8
2017-Apr-26 08:01N 50°58' E 001°50'1 1.6
2017-Apr-26 07:30N 50°58' E 001°51'0 0.0
2017-Apr-26 07:00N 50°58' E 001°51'4 8.7
2017-Apr-26 06:31N 50°58' E 001°44'917.8
2017-Apr-26 06:01N 51°02' E 001°31'917.4
2017-Apr-26 05:30N 51°07' E 001°20'0 0.1
2017-Apr-26 04:45N 51°07' E 001°20'0 0.0
2017-Apr-26 04:30N 51°07' E 001°20'3 6.5
2017-Apr-26 04:00N 51°06' E 001°25'816.0
2017-Apr-26 03:31N 51°02' E 001°36'815.5
2017-Apr-26 03:00N 50°58' E 001°46'3 5.9
2017-Apr-26 02:29N 50°58' E 001°51'0 0.0
2017-Apr-26 01:59N 50°58' E 001°51'3 5.8
2017-Apr-26 01:30N 50°58' E 001°47'918.6
2017-Apr-26 01:00N 51°02' E 001°33'1019.4
2017-Apr-26 00:30N 51°07' E 001°20'1 1.3
2017-Apr-25 23:56N 51°07' E 001°20'0 0.2
2017-Apr-25 23:24N 51°07' E 001°20'411.0
2017-Apr-25 23:00N 51°07' E 001°27'917.6
2017-Apr-25 22:30N 51°02' E 001°39'815.2
2017-Apr-25 22:00N 50°58' E 001°49'1 1.9
2017-Apr-25 21:30N 50°58' E 001°51'0 0.0
2017-Apr-25 20:56N 50°58' E 001°51'4 9.0
2017-Apr-25 20:30N 50°58' E 001°45'917.3
2017-Apr-25 20:00N 51°00' E 001°32'918.8
2017-Apr-25 19:30N 51°07' E 001°21'1 0.7
2017-Apr-25 18:33N 51°07' E 001°20'0 1.1
2017-Apr-25 18:30N 51°07' E 001°20'612.2
2017-Apr-25 18:01N 51°04' E 001°29'1019.2
2017-Apr-25 17:31N 50°59' E 001°42'612.0
2017-Apr-25 17:00N 50°58' E 001°51'0 0.0
2017-Apr-25 16:29N 50°58' E 001°51'2 3.9
2017-Apr-25 16:00N 50°58' E 001°48'816.3
2017-Apr-25 15:31N 51°01' E 001°36'918.6
2017-Apr-25 15:00N 51°06' E 001°23'3 4.0
2017-Apr-25 14:21N 51°07' E 001°20'5 6.3
2017-Apr-25 13:31N 51°07' E 001°29'917.3
2017-Apr-25 13:01N 51°02' E 001°40'815.2
2017-Apr-25 12:30N 50°58' E 001°51'0 0.7
2017-Apr-25 11:59N 50°58' E 001°51'0 0.0
2017-Apr-25 11:31N 50°58' E 001°51'815.0
2017-Apr-25 11:00N 50°60' E 001°39'919.0
2017-Apr-25 10:30N 51°05' E 001°27'5 3.9
2017-Apr-25 09:15N 51°07' E 001°20'312.3
2017-Apr-25 09:01N 51°07' E 001°25'918.0
2017-Apr-25 08:31N 51°02' E 001°37'917.1
2017-Apr-25 08:00N 50°58' E 001°49'1 2.2
2017-Apr-25 07:30N 50°58' E 001°51'0 0.0
2017-Apr-25 06:56N 50°58' E 001°51'512.0
2017-Apr-25 06:30N 50°58' E 001°43'917.8
2017-Apr-25 06:00N 51°02' E 001°30'816.2
2017-Apr-25 05:30N 51°07' E 001°20'0 0.2
2017-Apr-25 04:22N 51°07' E 001°20'0 0.0
2017-Apr-25 03:59N 51°07' E 001°20'612.4
2017-Apr-25 03:30N 51°07' E 001°29'917.8
2017-Apr-25 03:00N 51°00' E 001°40'715.0
2017-Apr-25 02:31N 50°58' E 001°51'0 0.1
2017-Apr-25 01:59N 50°58' E 001°51'0 0.0
2017-Apr-25 01:26N 50°58' E 001°51'614.4
2017-Apr-25 01:00N 50°59' E 001°41'917.7
2017-Apr-25 00:30N 51°03' E 001°29'712.7
2017-Apr-24 23:57N 51°07' E 001°20'0 0.0
2017-Apr-24 23:29N 51°07' E 001°20'0 0.5
2017-Apr-24 23:00N 51°07' E 001°20'715.4
2017-Apr-24 22:30N 51°05' E 001°32'917.5
2017-Apr-24 22:01N 50°60' E 001°43'610.1
2017-Apr-24 21:27N 50°58' E 001°51'0 0.0
2017-Apr-24 21:00N 50°58' E 001°51'0 0.7
2017-Apr-24 20:29N 50°58' E 001°51'917.9
2017-Apr-24 20:00N 50°59' E 001°37'917.7
2017-Apr-24 19:30N 51°04' E 001°26'5 6.5
2017-Apr-24 18:44N 51°07' E 001°20'0 0.0
2017-Apr-24 18:30N 51°07' E 001°20'3 6.4
2017-Apr-24 18:01N 51°07' E 001°25'917.5
2017-Apr-24 17:31N 51°02' E 001°37'917.0
2017-Apr-24 17:01N 50°58' E 001°49'1 2.5
2017-Apr-24 16:30N 50°58' E 001°51'0 0.1
2017-Apr-24 16:00N 50°58' E 001°51'815.1
2017-Apr-24 15:30N 50°59' E 001°39'1019.4
2017-Apr-24 15:01N 51°04' E 001°26'5 5.9
2017-Apr-24 14:12N 51°07' E 001°20'3 4.9
2017-Apr-24 13:30N 51°06' E 001°25'1019.2
2017-Apr-24 13:00N 51°01' E 001°38'816.9
2017-Apr-24 12:30N 50°58' E 001°51'0 0.4
2017-Apr-24 12:00N 50°58' E 001°51'0 0.0
2017-Apr-24 11:30N 50°58' E 001°51'714.5
2017-Apr-24 11:01N 50°59' E 001°40'1019.2
2017-Apr-24 10:30N 51°04' E 001°27'5 4.8
2017-Apr-24 09:22N 51°07' E 001°20'615.9
2017-Apr-24 09:00N 51°05' E 001°29'918.6
2017-Apr-24 08:30N 51°00' E 001°41'612.7
2017-Apr-24 08:00N 50°58' E 001°51'0 0.1
2017-Apr-24 07:26N 50°58' E 001°51'0 0.0
2017-Apr-24 06:59N 50°58' E 001°51'714.2
2017-Apr-24 06:30N 50°58' E 001°40'917.7
2017-Apr-24 06:00N 51°03' E 001°29'713.9
2017-Apr-24 05:30N 51°07' E 001°20'0 0.0
2017-Apr-24 04:56N 51°07' E 001°20'0 0.0
2017-Apr-24 04:16N 51°07' E 001°20'1 3.9
2017-Apr-24 04:00N 51°07' E 001°22'816.7
2017-Apr-24 03:30N 51°04' E 001°34'917.6
2017-Apr-24 03:00N 50°58' E 001°45'4 8.7
2017-Apr-24 02:30N 50°58' E 001°51'0 0.0
2017-Apr-24 02:00N 50°58' E 001°51'0 0.0
2017-Apr-24 01:30N 50°58' E 001°51'5 9.0
2017-Apr-24 00:59N 50°58' E 001°44'918.0
2017-Apr-24 00:30N 50°60' E 001°31'919.0
2017-Apr-24 00:00N 51°07' E 001°20'1 1.8
2017-Apr-23 23:30N 51°07' E 001°20'0 0.2
2017-Apr-23 22:58N 51°07' E 001°20'715.6
2017-Apr-23 22:30N 51°05' E 001°31'918.1
2017-Apr-23 22:00N 50°59' E 001°42'611.2
2017-Apr-23 21:30N 50°58' E 001°51'0 0.0
2017-Apr-23 20:59N 50°58' E 001°51'0 0.4
2017-Apr-23 20:30N 50°58' E 001°51'918.5
2017-Apr-23 20:00N 50°60' E 001°36'815.4
2017-Apr-23 19:30N 51°04' E 001°26'5 9.1
2017-Apr-23 18:56N 51°07' E 001°20'0 0.0
2017-Apr-23 18:28N 51°07' E 001°20'2 4.2
2017-Apr-23 18:00N 51°07' E 001°23'817.0
2017-Apr-23 17:31N 51°03' E 001°35'816.2
2017-Apr-23 17:00N 50°58' E 001°45'4 7.3
2017-Apr-23 16:30N 50°58' E 001°51'0 0.0
2017-Apr-23 16:00N 50°58' E 001°51'510.0
2017-Apr-23 15:31N 50°58' E 001°43'917.8
2017-Apr-23 15:00N 51°01' E 001°30'9 8.4
2017-Apr-23 13:59N 51°07' E 001°20'1 2.2
2017-Apr-23 13:31N 51°07' E 001°21'918.1
2017-Apr-23 13:01N 51°03' E 001°34'918.3
2017-Apr-23 12:30N 50°58' E 001°47'3 5.2
2017-Apr-23 11:59N 50°58' E 001°51'0 0.0
2017-Apr-23 11:30N 50°58' E 001°51'613.2
2017-Apr-23 11:01N 50°59' E 001°41'918.9
2017-Apr-23 10:30N 51°04' E 001°28'611.1
2017-Apr-23 09:57N 51°07' E 001°20'0 0.0
2017-Apr-23 09:29N 51°07' E 001°20'0 0.0
2017-Apr-23 09:00N 51°07' E 001°20'0 0.0
2017-Apr-23 08:30N 51°07' E 001°20'0 0.0
2017-Apr-23 07:59N 51°07' E 001°20'0 0.0
2017-Apr-23 07:28N 51°07' E 001°20'0 0.0
2017-Apr-23 06:53N 51°07' E 001°20'0 0.0
2017-Apr-23 06:30N 51°07' E 001°20'0 0.0
2017-Apr-23 06:00N 51°07' E 001°20'0 0.0
2017-Apr-23 05:29N 51°07' E 001°20'0 0.0
2017-Apr-23 04:59N 51°07' E 001°20'0 0.0
2017-Apr-23 04:17N 51°07' E 001°20'0 0.0
2017-Apr-23 04:00N 51°07' E 001°20'0 0.0
2017-Apr-23 03:28N 51°07' E 001°20'0 0.0
2017-Apr-23 02:12N 51°07' E 001°20'0 0.0
2017-Apr-23 01:59N 51°07' E 001°20'0 0.0
2017-Apr-23 01:29N 51°07' E 001°20'0 0.0
2017-Apr-23 00:47N 51°07' E 001°20'0 0.0
2017-Apr-23 00:29N 51°07' E 001°20'0 0.0
2017-Apr-22 23:59N 51°07' E 001°20'0 0.0
2017-Apr-22 23:30N 51°07' E 001°20'0 0.0
2017-Apr-22 22:58N 51°07' E 001°20'0 0.0
2017-Apr-22 22:29N 51°07' E 001°20'0 0.0
2017-Apr-22 22:00N 51°07' E 001°20'0 0.0
2017-Apr-22 21:26N 51°07' E 001°20'0 0.0
2017-Apr-22 20:03N 51°07' E 001°20'0 0.0
2017-Apr-22 19:54N 51°07' E 001°20'0 0.0
2017-Apr-22 19:26N 51°07' E 001°20'0 0.0
2017-Apr-22 19:00N 51°07' E 001°20'0 0.0
2017-Apr-22 18:28N 51°07' E 001°20'3 5.7
2017-Apr-22 18:01N 51°07' E 001°24'918.1
2017-Apr-22 17:31N 51°02' E 001°36'917.3
2017-Apr-22 17:01N 50°58' E 001°49'1 2.8
2017-Apr-22 16:31N 50°58' E 001°51'0 0.0
2017-Apr-22 16:00N 50°58' E 001°51'612.7
2017-Apr-22 15:30N 50°58' E 001°41'918.2
2017-Apr-22 15:00N 51°04' E 001°29'712.0
2017-Apr-22 14:26N 51°07' E 001°20'3 3.1
2017-Apr-22 13:31N 51°06' E 001°24'917.9
2017-Apr-22 13:01N 51°02' E 001°37'917.2
2017-Apr-22 12:31N 50°58' E 001°49'1 2.4
2017-Apr-22 11:58N 50°58' E 001°51'0 0.0
2017-Apr-22 11:30N 50°58' E 001°51'612.5
2017-Apr-22 11:01N 50°59' E 001°41'1019.4
2017-Apr-22 10:30N 51°04' E 001°28'6 4.6
2017-Apr-22 09:09N 51°07' E 001°20'110.0
2017-Apr-22 09:01N 51°07' E 001°23'918.7
2017-Apr-22 08:31N 51°02' E 001°35'917.6
2017-Apr-22 08:01N 50°58' E 001°48'2 3.6
2017-Apr-22 07:24N 50°58' E 001°51'0 0.0
2017-Apr-22 07:00N 50°58' E 001°51'612.3
2017-Apr-22 06:30N 50°58' E 001°42'918.9
2017-Apr-22 06:00N 51°03' E 001°29'7 3.4
2017-Apr-22 04:00N 51°07' E 001°20'713.3
2017-Apr-22 03:30N 51°05' E 001°30'1020.0
2017-Apr-22 03:00N 50°59' E 001°43'510.6
2017-Apr-22 02:30N 50°58' E 001°51'0 0.0
2017-Apr-22 02:00N 50°58' E 001°51'0 0.0
2017-Apr-22 01:28N 50°58' E 001°51'612.7
2017-Apr-22 01:01N 50°58' E 001°42'918.8
2017-Apr-22 00:31N 51°03' E 001°29'712.1
2017-Apr-21 23:55N 51°07' E 001°20'0 0.0
2017-Apr-21 23:27N 51°07' E 001°20'0 0.4
2017-Apr-21 22:59N 51°07' E 001°20'816.2
2017-Apr-21 22:30N 51°05' E 001°32'918.5
2017-Apr-21 22:00N 50°59' E 001°43'5 9.9
2017-Apr-21 21:30N 50°58' E 001°51'0 0.0
2017-Apr-21 21:00N 50°58' E 001°51'4 7.3
2017-Apr-21 20:30N 50°58' E 001°45'918.1
2017-Apr-21 20:00N 51°02' E 001°33'917.7
2017-Apr-21 19:30N 51°07' E 001°21'1 1.2
2017-Apr-21 18:58N 51°07' E 001°20'0 0.0
2017-Apr-21 18:30N 51°07' E 001°20'2 4.3
2017-Apr-21 18:00N 51°07' E 001°23'917.5
2017-Apr-21 17:30N 51°02' E 001°35'816.9
2017-Apr-21 17:01N 50°58' E 001°47'3 5.3
2017-Apr-21 16:30N 50°58' E 001°51'0 0.0
2017-Apr-21 16:00N 50°58' E 001°51'715.1
2017-Apr-21 15:31N 50°59' E 001°39'1019.3
2017-Apr-21 15:00N 51°04' E 001°26'5 8.7
2017-Apr-21 14:25N 51°07' E 001°20'3 3.2
2017-Apr-21 13:30N 51°07' E 001°25'917.0
2017-Apr-21 13:00N 51°03' E 001°37'917.3
2017-Apr-21 12:30N 50°58' E 001°48'2 3.5
2017-Apr-21 12:00N 50°58' E 001°51'0 0.0
2017-Apr-21 11:31N 50°58' E 001°51'510.5
2017-Apr-21 11:00N 50°58' E 001°43'918.7
2017-Apr-21 10:30N 51°03' E 001°30'8 5.5
2017-Apr-21 09:07N 51°07' E 001°20'1 8.4
2017-Apr-21 09:00N 51°07' E 001°22'918.1
2017-Apr-21 08:31N 51°03' E 001°34'917.9
2017-Apr-21 08:00N 50°58' E 001°46'3 5.8
2017-Apr-21 07:30N 50°58' E 001°51'0 0.0
2017-Apr-21 07:01N 50°58' E 001°51'612.6
2017-Apr-21 06:30N 50°58' E 001°41'1020.0
2017-Apr-21 06:00N 51°04' E 001°28'6 3.2
2017-Apr-21 04:10N 51°07' E 001°20'0 1.8
2017-Apr-21 04:00N 51°07' E 001°21'714.4
2017-Apr-21 03:31N 51°05' E 001°31'816.6
2017-Apr-21 03:00N 50°60' E 001°42'612.1
2017-Apr-21 02:30N 50°58' E 001°51'0 0.0
2017-Apr-21 01:59N 50°58' E 001°51'0 0.0
2017-Apr-21 01:29N 50°58' E 001°51'3 5.7
2017-Apr-21 01:01N 50°58' E 001°47'816.9
2017-Apr-21 00:31N 50°60' E 001°34'918.0
2017-Apr-21 00:01N 51°06' E 001°23'3 5.0
2017-Apr-20 23:30N 51°07' E 001°20'0 0.1
2017-Apr-20 23:00N 51°07' E 001°20'713.7
2017-Apr-20 22:31N 51°05' E 001°30'918.6
2017-Apr-20 22:01N 50°59' E 001°42'611.2
2017-Apr-20 21:30N 50°58' E 001°51'0 0.0
2017-Apr-20 21:00N 50°58' E 001°51'1 2.9
2017-Apr-20 20:30N 50°58' E 001°49'714.3
2017-Apr-20 20:00N 50°60' E 001°38'1019.2
2017-Apr-20 19:30N 51°05' E 001°25'4 6.2
2017-Apr-20 18:53N 51°07' E 001°20'0 0.1
2017-Apr-20 18:20N 51°07' E 001°20'3 8.3
2017-Apr-20 18:00N 51°07' E 001°24'917.6
2017-Apr-20 17:30N 51°03' E 001°37'816.7
2017-Apr-20 17:00N 50°58' E 001°48'2 3.8
2017-Apr-20 16:30N 50°58' E 001°51'0 0.0
2017-Apr-20 15:57N 50°58' E 001°51'715.6
2017-Apr-20 15:31N 50°59' E 001°40'1019.4
2017-Apr-20 15:01N 51°05' E 001°28'  
Track history (hours):
 
Tides and Currents Weather Stations Pressure Air Temp Water Temp Dewpoint Dewpoint Depression Visibility Wind Speed Wind Dir Waves Ship Positions

Pride Of Canterbury

Operator: P & O Ferries

Last reported at 2017-Apr-30 14:29 UTC. Time now 2017-Apr-30 14:53 UTC.
Position N 51°07' E 001°20'.

Length 180 m; draft 5.7 m.

Type: Passenger vessel. MMSI: 232001060.

Date/timePositionNaut miles runAvg speedWind from/ knotsBaromVisibWave heightAir tempDewpointWater temp
2017-Apr-30 14:29N 51°07' E 001°20'3 2.7
2017-Apr-30 13:31N 51°07' E 001°24'918.8
2017-Apr-30 13:01N 51°02' E 001°37'816.7
2017-Apr-30 12:31N 50°58' E 001°49'1 2.7
2017-Apr-30 12:00N 50°58' E 001°51'0 0.0
2017-Apr-30 11:30N 50°58' E 001°51'713.3
2017-Apr-30 11:00N 50°58' E 001°40'917.6
2017-Apr-30 10:30N 51°03' E 001°29'7 6.4
2017-Apr-30 09:25N 51°07' E 001°20'1 2.1
2017-Apr-30 09:00N 51°07' E 001°21'1019.5
2017-Apr-30 08:31N 51°03' E 001°35'1019.1
2017-Apr-30 08:01N 50°58' E 001°48'2 3.2
2017-Apr-30 07:29N 50°58' E 001°51'0 0.0
2017-Apr-30 07:00N 50°58' E 001°51'611.1
2017-Apr-30 06:30N 50°58' E 001°42'917.9
2017-Apr-30 06:00N 51°03' E 001°30'815.1
2017-Apr-30 05:30N 51°07' E 001°20'0 0.0
2017-Apr-30 05:00N 51°07' E 001°20'0 0.0
2017-Apr-30 04:27N 51°07' E 001°20'0 0.3
2017-Apr-30 04:00N 51°07' E 001°20'815.8
2017-Apr-30 03:30N 51°05' E 001°32'918.3
2017-Apr-30 03:00N 50°59' E 001°44'5 9.3
2017-Apr-30 02:30N 50°58' E 001°51'0 0.0
2017-Apr-30 02:00N 50°58' E 001°51'0 0.0
2017-Apr-30 01:29N 50°58' E 001°51'5 9.9
2017-Apr-30 01:01N 50°58' E 001°44'916.5
2017-Apr-30 00:29N 51°01' E 001°31'815.7
2017-Apr-30 00:00N 51°06' E 001°22'2 3.1
2017-Apr-29 23:29N 51°07' E 001°20'0 0.2
2017-Apr-29 23:00N 51°07' E 001°20'816.0
2017-Apr-29 22:31N 51°04' E 001°31'917.6
2017-Apr-29 22:00N 50°59' E 001°43'510.3
2017-Apr-29 21:30N 50°58' E 001°51'0 0.0
2017-Apr-29 21:00N 50°58' E 001°51'0 0.8
2017-Apr-29 20:31N 50°58' E 001°51'815.7
2017-Apr-29 20:01N 50°59' E 001°38'816.5
2017-Apr-29 19:30N 51°04' E 001°28'610.5
2017-Apr-29 18:58N 51°07' E 001°20'0 0.0
2017-Apr-29 18:28N 51°07' E 001°20'4 7.9
2017-Apr-29 18:00N 51°06' E 001°26'917.3
2017-Apr-29 17:31N 51°02' E 001°37'816.3
2017-Apr-29 17:01N 50°58' E 001°49'1 2.4
2017-Apr-29 16:29N 50°58' E 001°51'0 0.5
2017-Apr-29 16:01N 50°58' E 001°51'917.7
2017-Apr-29 15:31N 50°60' E 001°37'1019.1
2017-Apr-29 15:00N 51°06' E 001°25'4 3.5
2017-Apr-29 14:00N 51°07' E 001°20'611.3
2017-Apr-29 13:31N 51°05' E 001°28'918.1
2017-Apr-29 13:00N 51°00' E 001°40'714.0
2017-Apr-29 12:30N 50°58' E 001°51'0 0.2
2017-Apr-29 11:59N 50°58' E 001°51'0 0.3
2017-Apr-29 11:30N 50°58' E 001°51'917.7
2017-Apr-29 11:01N 50°60' E 001°37'918.6
2017-Apr-29 10:31N 51°05' E 001°25'4 3.3
2017-Apr-29 09:23N 51°07' E 001°20'512.7
2017-Apr-29 09:00N 51°06' E 001°27'1019.3
2017-Apr-29 08:31N 51°00' E 001°40'815.2
2017-Apr-29 08:01N 50°58' E 001°52'0 0.1
2017-Apr-29 07:30N 50°58' E 001°52'0 0.8
2017-Apr-29 07:00N 50°58' E 001°51'714.9
2017-Apr-29 06:30N 50°59' E 001°39'918.7
2017-Apr-29 06:00N 51°04' E 001°27'6 3.8
2017-Apr-29 04:31N 51°07' E 001°20'0 0.0
2017-Apr-29 04:22N 51°07' E 001°20'2 6.9
2017-Apr-29 04:00N 51°07' E 001°24'918.4
2017-Apr-29 03:30N 51°02' E 001°36'917.1
2017-Apr-29 03:00N 50°58' E 001°49'2 3.7
2017-Apr-29 02:30N 50°58' E 001°52'0 0.0
2017-Apr-29 02:00N 50°58' E 001°52'0 0.0
2017-Apr-29 01:30N 50°58' E 001°52'815.3
2017-Apr-29 01:00N 50°58' E 001°40'918.9
2017-Apr-29 00:30N 51°04' E 001°27'611.1
2017-Apr-28 23:59N 51°07' E 001°20'0 0.0
2017-Apr-28 23:30N 51°07' E 001°20'2 3.5
2017-Apr-28 23:00N 51°07' E 001°23'1019.0
2017-Apr-28 22:30N 51°02' E 001°36'918.4
2017-Apr-28 22:00N 50°58' E 001°49'2 3.4
2017-Apr-28 21:30N 50°58' E 001°52'0 0.0
2017-Apr-28 21:00N 50°58' E 001°52'1 3.0
2017-Apr-28 20:30N 50°58' E 001°49'816.1
2017-Apr-28 20:00N 51°00' E 001°37'918.4
2017-Apr-28 19:30N 51°05' E 001°25'4 3.1
2017-Apr-28 18:21N 51°07' E 001°20'3 9.2
2017-Apr-28 18:00N 51°06' E 001°25'917.3
2017-Apr-28 17:30N 51°02' E 001°37'816.2
2017-Apr-28 17:00N 50°58' E 001°48'2 3.5
2017-Apr-28 16:28N 50°58' E 001°51'1 2.8
2017-Apr-28 16:00N 50°58' E 001°49'917.8
2017-Apr-28 15:29N 51°01' E 001°35'919.2
2017-Apr-28 15:00N 51°06' E 001°23'2 2.0
2017-Apr-28 13:56N 51°07' E 001°20'512.1
2017-Apr-28 13:30N 51°07' E 001°28'917.4
2017-Apr-28 13:00N 51°02' E 001°40'714.9
2017-Apr-28 12:30N 50°58' E 001°50'1 1.1
2017-Apr-28 11:59N 50°58' E 001°51'0 0.0
2017-Apr-28 11:30N 50°58' E 001°51'714.7
2017-Apr-28 11:00N 50°59' E 001°40'1019.1
2017-Apr-28 10:30N 51°05' E 001°27'5 4.4
2017-Apr-28 09:20N 51°07' E 001°20'2 5.7
2017-Apr-28 09:00N 51°07' E 001°23'919.0
2017-Apr-28 08:30N 51°02' E 001°36'918.3
2017-Apr-28 08:00N 50°58' E 001°49'1 2.5
2017-Apr-28 07:30N 50°58' E 001°51'0 0.0
2017-Apr-28 07:00N 50°58' E 001°51'510.8
2017-Apr-28 06:30N 50°58' E 001°43'917.3
2017-Apr-28 06:00N 51°02' E 001°31'815.8
2017-Apr-28 05:28N 51°07' E 001°20'0 0.0
2017-Apr-28 04:57N 51°07' E 001°20'0 0.0
2017-Apr-28 04:18N 51°07' E 001°20'1 3.8
2017-Apr-28 04:00N 51°07' E 001°22'815.4
2017-Apr-28 03:30N 51°04' E 001°33'816.1
2017-Apr-28 03:00N 50°59' E 001°43'510.9
2017-Apr-28 02:30N 50°58' E 001°52'0 0.0
2017-Apr-28 01:59N 50°58' E 001°52'0 0.0
2017-Apr-28 01:30N 50°58' E 001°52'613.1
2017-Apr-28 01:00N 50°58' E 001°42'1219.1
2017-Apr-28 00:24N 51°04' E 001°26'5 9.3
2017-Apr-27 23:52N 51°07' E 001°20'0 0.0
2017-Apr-27 23:29N 51°07' E 001°20'0 0.4
2017-Apr-27 23:00N 51°07' E 001°20'816.6
2017-Apr-27 22:30N 51°04' E 001°32'918.7
2017-Apr-27 22:01N 50°59' E 001°44'5 9.4
2017-Apr-27 21:30N 50°58' E 001°52'0 0.0
2017-Apr-27 21:00N 50°58' E 001°52'5 9.1
2017-Apr-27 20:30N 50°58' E 001°44'917.4
2017-Apr-27 20:00N 51°02' E 001°32'917.6
2017-Apr-27 19:29N 51°07' E 001°20'0 0.2
2017-Apr-27 18:54N 51°07' E 001°20'0 0.6
2017-Apr-27 18:30N 51°07' E 001°20'917.7
2017-Apr-27 18:00N 51°04' E 001°33'918.6
2017-Apr-27 17:30N 50°58' E 001°45'4 7.3
2017-Apr-27 16:58N 50°58' E 001°51'0 0.0
2017-Apr-27 16:28N 50°58' E 001°51'3 6.8
2017-Apr-27 16:00N 50°58' E 001°46'918.2
2017-Apr-27 15:30N 51°02' E 001°33'1018.5
2017-Apr-27 14:59N 51°07' E 001°20'0 0.1
2017-Apr-27 13:59N 51°07' E 001°20'714.7
2017-Apr-27 13:30N 51°07' E 001°32'917.3
2017-Apr-27 13:01N 51°01' E 001°41'713.8
2017-Apr-27 12:31N 50°58' E 001°51'0 0.3
2017-Apr-27 11:57N 50°58' E 001°51'0 0.2
2017-Apr-27 11:30N 50°58' E 001°51'916.9
2017-Apr-27 10:59N 50°60' E 001°38'919.0
2017-Apr-27 10:31N 51°04' E 001°25'4 3.3
2017-Apr-27 09:14N 51°07' E 001°20'2 9.5
2017-Apr-27 09:01N 51°07' E 001°24'918.4
2017-Apr-27 08:31N 51°02' E 001°36'918.1
2017-Apr-27 08:01N 50°58' E 001°49'1 2.5
2017-Apr-27 07:30N 50°58' E 001°51'0 0.0
2017-Apr-27 07:00N 50°58' E 001°51'4 8.8
2017-Apr-27 06:30N 50°58' E 001°44'917.4
2017-Apr-27 06:01N 51°03' E 001°32'914.5
2017-Apr-27 05:23N 51°07' E 001°20'0 0.0
2017-Apr-27 04:49N 51°07' E 001°20'0 0.0
2017-Apr-27 04:30N 51°07' E 001°20'3 6.6
2017-Apr-27 04:00N 51°06' E 001°25'816.0
2017-Apr-27 03:30N 51°03' E 001°36'815.4
2017-Apr-27 03:00N 50°58' E 001°46'4 7.2
2017-Apr-27 02:31N 50°58' E 001°52'0 0.0
2017-Apr-27 02:00N 50°58' E 001°52'1 2.4
2017-Apr-27 01:30N 50°58' E 001°50'918.9
2017-Apr-27 01:00N 51°01' E 001°35'918.8
2017-Apr-27 00:30N 51°06' E 001°23'2 4.4
2017-Apr-26 23:59N 51°07' E 001°20'0 0.3
2017-Apr-26 23:30N 51°07' E 001°20'715.0
2017-Apr-26 23:01N 51°04' E 001°31'917.7
2017-Apr-26 22:31N 50°59' E 001°43'611.4
2017-Apr-26 21:59N 50°58' E 001°52'0 0.0
2017-Apr-26 21:30N 50°58' E 001°52'0 0.5
2017-Apr-26 21:00N 50°58' E 001°51'714.5
2017-Apr-26 20:30N 50°59' E 001°40'918.0
2017-Apr-26 20:01N 51°03' E 001°27'611.7
2017-Apr-26 19:29N 51°07' E 001°20'0 0.3
2017-Apr-26 18:58N 51°07' E 001°20'1 2.8
2017-Apr-26 18:30N 51°07' E 001°22'918.5
2017-Apr-26 18:00N 51°03' E 001°35'918.0
2017-Apr-26 17:30N 50°58' E 001°47'2 4.5
2017-Apr-26 17:00N 50°58' E 001°51'0 0.0
2017-Apr-26 16:30N 50°58' E 001°51'5 9.9
2017-Apr-26 16:00N 50°58' E 001°43'917.5
2017-Apr-26 15:30N 51°02' E 001°31'916.3
2017-Apr-26 14:58N 51°07' E 001°20'0 0.0
2017-Apr-26 14:08N 51°07' E 001°20'913.8
2017-Apr-26 13:31N 51°04' E 001°32'917.5
2017-Apr-26 13:01N 50°59' E 001°44'5 9.4
2017-Apr-26 12:29N 50°58' E 001°52'0 0.0
2017-Apr-26 12:00N 50°58' E 001°52'1 1.9
2017-Apr-26 11:31N 50°58' E 001°50'1019.8
2017-Apr-26 11:00N 50°60' E 001°35'1019.2
2017-Apr-26 10:31N 51°06' E 001°24'2 1.9
2017-Apr-26 09:15N 51°07' E 001°20'311.1
2017-Apr-26 09:00N 51°07' E 001°24'918.6
2017-Apr-26 08:30N 51°02' E 001°37'917.8
2017-Apr-26 08:01N 50°58' E 001°50'1 1.6
2017-Apr-26 07:30N 50°58' E 001°51'0 0.0
2017-Apr-26 07:00N 50°58' E 001°51'4 8.7
2017-Apr-26 06:31N 50°58' E 001°44'917.8
2017-Apr-26 06:01N 51°02' E 001°31'917.4
2017-Apr-26 05:30N 51°07' E 001°20'0 0.1
2017-Apr-26 04:45N 51°07' E 001°20'0 0.0
2017-Apr-26 04:30N 51°07' E 001°20'3 6.5
2017-Apr-26 04:00N 51°06' E 001°25'816.0
2017-Apr-26 03:31N 51°02' E 001°36'815.5
2017-Apr-26 03:00N 50°58' E 001°46'3 5.9
2017-Apr-26 02:29N 50°58' E 001°51'0 0.0
2017-Apr-26 01:59N 50°58' E 001°51'3 5.8
2017-Apr-26 01:30N 50°58' E 001°47'918.6
2017-Apr-26 01:00N 51°02' E 001°33'1019.4
2017-Apr-26 00:30N 51°07' E 001°20'1 1.3
2017-Apr-25 23:56N 51°07' E 001°20'0 0.2
2017-Apr-25 23:24N 51°07' E 001°20'411.0
2017-Apr-25 23:00N 51°07' E 001°27'917.6
2017-Apr-25 22:30N 51°02' E 001°39'815.2
2017-Apr-25 22:00N 50°58' E 001°49'1 1.9
2017-Apr-25 21:30N 50°58' E 001°51'0 0.0
2017-Apr-25 20:56N 50°58' E 001°51'4 9.0
2017-Apr-25 20:30N 50°58' E 001°45'917.3
2017-Apr-25 20:00N 51°00' E 001°32'918.8
2017-Apr-25 19:30N 51°07' E 001°21'1 0.7
2017-Apr-25 18:33N 51°07' E 001°20'0 1.1
2017-Apr-25 18:30N 51°07' E 001°20'612.2
2017-Apr-25 18:01N 51°04' E 001°29'1019.2
2017-Apr-25 17:31N 50°59' E 001°42'612.0
2017-Apr-25 17:00N 50°58' E 001°51'0 0.0
2017-Apr-25 16:29N 50°58' E 001°51'2 3.9
2017-Apr-25 16:00N 50°58' E 001°48'816.3
2017-Apr-25 15:31N 51°01' E 001°36'918.6
2017-Apr-25 15:00N 51°06' E 001°23'3 4.0
2017-Apr-25 14:21N 51°07' E 001°20'5 6.3
2017-Apr-25 13:31N 51°07' E 001°29'917.3
2017-Apr-25 13:01N 51°02' E 001°40'815.2
2017-Apr-25 12:30N 50°58' E 001°51'0 0.7
2017-Apr-25 11:59N 50°58' E 001°51'0 0.0
2017-Apr-25 11:31N 50°58' E 001°51'815.0
2017-Apr-25 11:00N 50°60' E 001°39'919.0
2017-Apr-25 10:30N 51°05' E 001°27'5 3.9
2017-Apr-25 09:15N 51°07' E 001°20'312.3
2017-Apr-25 09:01N 51°07' E 001°25'918.0
2017-Apr-25 08:31N 51°02' E 001°37'917.1
2017-Apr-25 08:00N 50°58' E 001°49'1 2.2
2017-Apr-25 07:30N 50°58' E 001°51'0 0.0
2017-Apr-25 06:56N 50°58' E 001°51'512.0
2017-Apr-25 06:30N 50°58' E 001°43'917.8
2017-Apr-25 06:00N 51°02' E 001°30'816.2
2017-Apr-25 05:30N 51°07' E 001°20'0 0.2
2017-Apr-25 04:22N 51°07' E 001°20'0 0.0
2017-Apr-25 03:59N 51°07' E 001°20'612.4
2017-Apr-25 03:30N 51°07' E 001°29'917.8
2017-Apr-25 03:00N 51°00' E 001°40'715.0
2017-Apr-25 02:31N 50°58' E 001°51'0 0.1
2017-Apr-25 01:59N 50°58' E 001°51'0 0.0
2017-Apr-25 01:26N 50°58' E 001°51'614.4
2017-Apr-25 01:00N 50°59' E 001°41'917.7
2017-Apr-25 00:30N 51°03' E 001°29'712.7
2017-Apr-24 23:57N 51°07' E 001°20'0 0.0
2017-Apr-24 23:29N 51°07' E 001°20'0 0.5
2017-Apr-24 23:00N 51°07' E 001°20'715.4
2017-Apr-24 22:30N 51°05' E 001°32'917.5
2017-Apr-24 22:01N 50°60' E 001°43'610.1
2017-Apr-24 21:27N 50°58' E 001°51'0 0.0
2017-Apr-24 21:00N 50°58' E 001°51'0 0.7
2017-Apr-24 20:29N 50°58' E 001°51'917.9
2017-Apr-24 20:00N 50°59' E 001°37'917.7
2017-Apr-24 19:30N 51°04' E 001°26'5 6.5
2017-Apr-24 18:44N 51°07' E 001°20'0 0.0
2017-Apr-24 18:30N 51°07' E 001°20'3 6.4
2017-Apr-24 18:01N 51°07' E 001°25'917.5
2017-Apr-24 17:31N 51°02' E 001°37'917.0
2017-Apr-24 17:01N 50°58' E 001°49'1 2.5
2017-Apr-24 16:30N 50°58' E 001°51'0 0.1
2017-Apr-24 16:00N 50°58' E 001°51'815.1
2017-Apr-24 15:30N 50°59' E 001°39'1019.4
2017-Apr-24 15:01N 51°04' E 001°26'5 5.9
2017-Apr-24 14:12N 51°07' E 001°20'3 4.9
2017-Apr-24 13:30N 51°06' E 001°25'1019.2
2017-Apr-24 13:00N 51°01' E 001°38'816.9
2017-Apr-24 12:30N 50°58' E 001°51'0 0.4
2017-Apr-24 12:00N 50°58' E 001°51'0 0.0
2017-Apr-24 11:30N 50°58' E 001°51'714.5
2017-Apr-24 11:01N 50°59' E 001°40'1019.2
2017-Apr-24 10:30N 51°04' E 001°27'5 4.8
2017-Apr-24 09:22N 51°07' E 001°20'615.9
2017-Apr-24 09:00N 51°05' E 001°29'918.6
2017-Apr-24 08:30N 51°00' E 001°41'612.7
2017-Apr-24 08:00N 50°58' E 001°51'0 0.1
2017-Apr-24 07:26N 50°58' E 001°51'0 0.0
2017-Apr-24 06:59N 50°58' E 001°51'714.2
2017-Apr-24 06:30N 50°58' E 001°40'917.7
2017-Apr-24 06:00N 51°03' E 001°29'713.9
2017-Apr-24 05:30N 51°07' E 001°20'0 0.0
2017-Apr-24 04:56N 51°07' E 001°20'0 0.0
2017-Apr-24 04:16N 51°07' E 001°20'1 3.9
2017-Apr-24 04:00N 51°07' E 001°22'816.7
2017-Apr-24 03:30N 51°04' E 001°34'917.6
2017-Apr-24 03:00N 50°58' E 001°45'4 8.7
2017-Apr-24 02:30N 50°58' E 001°51'0 0.0
2017-Apr-24 02:00N 50°58' E 001°51'0 0.0
2017-Apr-24 01:30N 50°58' E 001°51'5 9.0
2017-Apr-24 00:59N 50°58' E 001°44'918.0
2017-Apr-24 00:30N 50°60' E 001°31'919.0
2017-Apr-24 00:00N 51°07' E 001°20'1 1.8
2017-Apr-23 23:30N 51°07' E 001°20'0 0.2
2017-Apr-23 22:58N 51°07' E 001°20'715.6
2017-Apr-23 22:30N 51°05' E 001°31'918.1
2017-Apr-23 22:00N 50°59' E 001°42'611.2
2017-Apr-23 21:30N 50°58' E 001°51'0 0.0
2017-Apr-23 20:59N 50°58' E 001°51'0 0.4
2017-Apr-23 20:30N 50°58' E 001°51'918.5
2017-Apr-23 20:00N 50°60' E 001°36'815.4
2017-Apr-23 19:30N 51°04' E 001°26'5 9.1
2017-Apr-23 18:56N 51°07' E 001°20'0 0.0
2017-Apr-23 18:28N 51°07' E 001°20'2 4.2
2017-Apr-23 18:00N 51°07' E 001°23'817.0
2017-Apr-23 17:31N 51°03' E 001°35'816.2
2017-Apr-23 17:00N 50°58' E 001°45'4 7.3
2017-Apr-23 16:30N 50°58' E 001°51'0 0.0
2017-Apr-23 16:00N 50°58' E 001°51'510.0
2017-Apr-23 15:31N 50°58' E 001°43'917.8
2017-Apr-23 15:00N 51°01' E 001°30'9 8.4
2017-Apr-23 13:59N 51°07' E 001°20'1 2.2
2017-Apr-23 13:31N 51°07' E 001°21'918.1
2017-Apr-23 13:01N 51°03' E 001°34'918.3
2017-Apr-23 12:30N 50°58' E 001°47'3 5.2
2017-Apr-23 11:59N 50°58' E 001°51'0 0.0
2017-Apr-23 11:30N 50°58' E 001°51'613.2
2017-Apr-23 11:01N 50°59' E 001°41'918.9
2017-Apr-23 10:30N 51°04' E 001°28'611.1
2017-Apr-23 09:57N 51°07' E 001°20'0 0.0
2017-Apr-23 09:29N 51°07' E 001°20'0 0.0
2017-Apr-23 09:00N 51°07' E 001°20'0 0.0
2017-Apr-23 08:30N 51°07' E 001°20'0 0.0
2017-Apr-23 07:59N 51°07' E 001°20'0 0.0
2017-Apr-23 07:28N 51°07' E 001°20'0 0.0
2017-Apr-23 06:53N 51°07' E 001°20'0 0.0
2017-Apr-23 06:30N 51°07' E 001°20'0 0.0
2017-Apr-23 06:00N 51°07' E 001°20'0 0.0
2017-Apr-23 05:29N 51°07' E 001°20'0 0.0
2017-Apr-23 04:59N 51°07' E 001°20'0 0.0
2017-Apr-23 04:17N 51°07' E 001°20'0 0.0
2017-Apr-23 04:00N 51°07' E 001°20'0 0.0
2017-Apr-23 03:28N 51°07' E 001°20'0 0.0
2017-Apr-23 02:12N 51°07' E 001°20'0 0.0
2017-Apr-23 01:59N 51°07' E 001°20'0 0.0
2017-Apr-23 01:29N 51°07' E 001°20'0 0.0
2017-Apr-23 00:47N 51°07' E 001°20'0 0.0
2017-Apr-23 00:29N 51°07' E 001°20'0 0.0
2017-Apr-22 23:59N 51°07' E 001°20'0 0.0
2017-Apr-22 23:30N 51°07' E 001°20'0 0.0
2017-Apr-22 22:58N 51°07' E 001°20'0 0.0
2017-Apr-22 22:29N 51°07' E 001°20'0 0.0
2017-Apr-22 22:00N 51°07' E 001°20'0 0.0
2017-Apr-22 21:26N 51°07' E 001°20'0 0.0
2017-Apr-22 20:03N 51°07' E 001°20'0 0.0
2017-Apr-22 19:54N 51°07' E 001°20'0 0.0
2017-Apr-22 19:26N 51°07' E 001°20'0 0.0
2017-Apr-22 19:00N 51°07' E 001°20'0 0.0
2017-Apr-22 18:28N 51°07' E 001°20'3 5.7
2017-Apr-22 18:01N 51°07' E 001°24'918.1
2017-Apr-22 17:31N 51°02' E 001°36'917.3
2017-Apr-22 17:01N 50°58' E 001°49'1 2.8
2017-Apr-22 16:31N 50°58' E 001°51'0 0.0
2017-Apr-22 16:00N 50°58' E 001°51'612.7
2017-Apr-22 15:30N 50°58' E 001°41'918.2
2017-Apr-22 15:00N 51°04' E 001°29'712.0
2017-Apr-22 14:26N 51°07' E 001°20'3 3.1
2017-Apr-22 13:31N 51°06' E 001°24'917.9
2017-Apr-22 13:01N 51°02' E 001°37'917.2
2017-Apr-22 12:31N 50°58' E 001°49'1 2.4
2017-Apr-22 11:58N 50°58' E 001°51'0 0.0
2017-Apr-22 11:30N 50°58' E 001°51'612.5
2017-Apr-22 11:01N 50°59' E 001°41'1019.4
2017-Apr-22 10:30N 51°04' E 001°28'6 4.6
2017-Apr-22 09:09N 51°07' E 001°20'110.0
2017-Apr-22 09:01N 51°07' E 001°23'918.7
2017-Apr-22 08:31N 51°02' E 001°35'917.6
2017-Apr-22 08:01N 50°58' E 001°48'2 3.6
2017-Apr-22 07:24N 50°58' E 001°51'0 0.0
2017-Apr-22 07:00N 50°58' E 001°51'612.3
2017-Apr-22 06:30N 50°58' E 001°42'918.9
2017-Apr-22 06:00N 51°03' E 001°29'7 3.4
2017-Apr-22 04:00N 51°07' E 001°20'713.3
2017-Apr-22 03:30N 51°05' E 001°30'1020.0
2017-Apr-22 03:00N 50°59' E 001°43'510.6
2017-Apr-22 02:30N 50°58' E 001°51'0 0.0
2017-Apr-22 02:00N 50°58' E 001°51'0 0.0
2017-Apr-22 01:28N 50°58' E 001°51'612.7
2017-Apr-22 01:01N 50°58' E 001°42'918.8
2017-Apr-22 00:31N 51°03' E 001°29'712.1
2017-Apr-21 23:55N 51°07' E 001°20'0 0.0
2017-Apr-21 23:27N 51°07' E 001°20'0 0.4
2017-Apr-21 22:59N 51°07' E 001°20'816.2
2017-Apr-21 22:30N 51°05' E 001°32'918.5
2017-Apr-21 22:00N 50°59' E 001°43'5 9.9
2017-Apr-21 21:30N 50°58' E 001°51'0 0.0
2017-Apr-21 21:00N 50°58' E 001°51'4 7.3
2017-Apr-21 20:30N 50°58' E 001°45'918.1
2017-Apr-21 20:00N 51°02' E 001°33'917.7
2017-Apr-21 19:30N 51°07' E 001°21'1 1.2
2017-Apr-21 18:58N 51°07' E 001°20'0 0.0
2017-Apr-21 18:30N 51°07' E 001°20'2 4.3
2017-Apr-21 18:00N 51°07' E 001°23'917.5
2017-Apr-21 17:30N 51°02' E 001°35'816.9
2017-Apr-21 17:01N 50°58' E 001°47'3 5.3
2017-Apr-21 16:30N 50°58' E 001°51'0 0.0
2017-Apr-21 16:00N 50°58' E 001°51'715.1
2017-Apr-21 15:31N 50°59' E 001°39'1019.3
2017-Apr-21 15:00N 51°04' E 001°26'5 8.7
2017-Apr-21 14:25N 51°07' E 001°20'3 3.2
2017-Apr-21 13:30N 51°07' E 001°25'917.0
2017-Apr-21 13:00N 51°03' E 001°37'917.3
2017-Apr-21 12:30N 50°58' E 001°48'2 3.5
2017-Apr-21 12:00N 50°58' E 001°51'0 0.0
2017-Apr-21 11:31N 50°58' E 001°51'510.5
2017-Apr-21 11:00N 50°58' E 001°43'918.7
2017-Apr-21 10:30N 51°03' E 001°30'8 5.5
2017-Apr-21 09:07N 51°07' E 001°20'1 8.4
2017-Apr-21 09:00N 51°07' E 001°22'918.1
2017-Apr-21 08:31N 51°03' E 001°34'917.9
2017-Apr-21 08:00N 50°58' E 001°46'3 5.8
2017-Apr-21 07:30N 50°58' E 001°51'0 0.0
2017-Apr-21 07:01N 50°58' E 001°51'612.6
2017-Apr-21 06:30N 50°58' E 001°41'1020.0
2017-Apr-21 06:00N 51°04' E 001°28'6 3.2
2017-Apr-21 04:10N 51°07' E 001°20'0 1.8
2017-Apr-21 04:00N 51°07' E 001°21'714.4
2017-Apr-21 03:31N 51°05' E 001°31'816.6
2017-Apr-21 03:00N 50°60' E 001°42'612.1
2017-Apr-21 02:30N 50°58' E 001°51'0 0.0
2017-Apr-21 01:59N 50°58' E 001°51'0 0.0
2017-Apr-21 01:29N 50°58' E 001°51'3 5.7
2017-Apr-21 01:01N 50°58' E 001°47'816.9
2017-Apr-21 00:31N 50°60' E 001°34'918.0
2017-Apr-21 00:01N 51°06' E 001°23'3 5.0
2017-Apr-20 23:30N 51°07' E 001°20'0 0.1
2017-Apr-20 23:00N 51°07' E 001°20'713.7
2017-Apr-20 22:31N 51°05' E 001°30'918.6
2017-Apr-20 22:01N 50°59' E 001°42'611.2
2017-Apr-20 21:30N 50°58' E 001°51'0 0.0
2017-Apr-20 21:00N 50°58' E 001°51'1 2.9
2017-Apr-20 20:30N 50°58' E 001°49'714.3
2017-Apr-20 20:00N 50°60' E 001°38'1019.2
2017-Apr-20 19:30N 51°05' E 001°25'4 6.2
2017-Apr-20 18:53N 51°07' E 001°20'0 0.1
2017-Apr-20 18:20N 51°07' E 001°20'3 8.3
2017-Apr-20 18:00N 51°07' E 001°24'917.6
2017-Apr-20 17:30N 51°03' E 001°37'816.7
2017-Apr-20 17:00N 50°58' E 001°48'2 3.8
2017-Apr-20 16:30N 50°58' E 001°51'0 0.0
2017-Apr-20 15:57N 50°58' E 001°51'715.6
2017-Apr-20 15:31N 50°59' E 001°40'1019.4
2017-Apr-20 15:01N 51°05' E 001°28'  

Dump ship's entire track history